sensor_id;sensor_type;location;lat;lon;timestamp;P1;durP1;ratioP1;P2;durP2;ratioP2
6973;SDS011;3527;52.376;8.990;2023-07-20T00:00:56;1.20;;;1.00;;
6973;SDS011;3527;52.376;8.990;2023-07-20T00:03:40;1.47;;;1.10;;
6973;SDS011;3527;52.376;8.990;2023-07-20T00:06:07;1.00;;;0.90;;
6973;SDS011;3527;52.376;8.990;2023-07-20T00:08:34;2.97;;;1.10;;
6973;SDS011;3527;52.376;8.990;2023-07-20T00:11:01;1.40;;;0.83;;
6973;SDS011;3527;52.376;8.990;2023-07-20T00:13:28;1.40;;;0.97;;
6973;SDS011;3527;52.376;8.990;2023-07-20T00:15:55;1.40;;;0.90;;
6973;SDS011;3527;52.376;8.990;2023-07-20T00:18:21;1.63;;;0.93;;
6973;SDS011;3527;52.376;8.990;2023-07-20T00:20:48;1.00;;;0.90;;
6973;SDS011;3527;52.376;8.990;2023-07-20T00:23:17;1.97;;;1.00;;
6973;SDS011;3527;52.376;8.990;2023-07-20T00:25:44;1.20;;;0.90;;
6973;SDS011;3527;52.376;8.990;2023-07-20T00:28:10;2.00;;;1.00;;
6973;SDS011;3527;52.376;8.990;2023-07-20T00:30:37;2.37;;;1.07;;
6973;SDS011;3527;52.376;8.990;2023-07-20T00:33:04;1.60;;;1.20;;
6973;SDS011;3527;52.376;8.990;2023-07-20T00:35:31;2.03;;;1.27;;
6973;SDS011;3527;52.376;8.990;2023-07-20T00:37:58;4.70;;;1.27;;
6973;SDS011;3527;52.376;8.990;2023-07-20T00:40:25;3.43;;;1.17;;
6973;SDS011;3527;52.376;8.990;2023-07-20T00:42:52;2.13;;;1.50;;
6973;SDS011;3527;52.376;8.990;2023-07-20T00:45:19;1.70;;;1.30;;
6973;SDS011;3527;52.376;8.990;2023-07-20T00:47:46;1.63;;;1.20;;
6973;SDS011;3527;52.376;8.990;2023-07-20T00:50:13;2.03;;;1.40;;
6973;SDS011;3527;52.376;8.990;2023-07-20T00:52:39;2.10;;;1.33;;
6973;SDS011;3527;52.376;8.990;2023-07-20T00:55:06;2.40;;;1.60;;
6973;SDS011;3527;52.376;8.990;2023-07-20T00:57:34;2.27;;;1.50;;
6973;SDS011;3527;52.376;8.990;2023-07-20T01:00:01;2.60;;;1.40;;
6973;SDS011;3527;52.376;8.990;2023-07-20T01:02:28;3.03;;;1.40;;
6973;SDS011;3527;52.376;8.990;2023-07-20T01:04:55;2.50;;;1.40;;
6973;SDS011;3527;52.376;8.990;2023-07-20T01:07:24;3.27;;;1.60;;
6973;SDS011;3527;52.376;8.990;2023-07-20T01:12:35;1.97;;;1.30;;
6973;SDS011;3527;52.376;8.990;2023-07-20T01:15:06;1.60;;;1.37;;
6973;SDS011;3527;52.376;8.990;2023-07-20T01:17:34;1.17;;;1.07;;
6973;SDS011;3527;52.376;8.990;2023-07-20T01:20:01;2.37;;;1.20;;
6973;SDS011;3527;52.376;8.990;2023-07-20T01:22:51;2.80;;;1.70;;
6973;SDS011;3527;52.376;8.990;2023-07-20T01:31:35;2.37;;;1.40;;
6973;SDS011;3527;52.376;8.990;2023-07-20T01:34:05;2.20;;;1.33;;
6973;SDS011;3527;52.376;8.990;2023-07-20T01:36:35;2.47;;;1.27;;
6973;SDS011;3527;52.376;8.990;2023-07-20T01:39:04;2.27;;;1.30;;
6973;SDS011;3527;52.376;8.990;2023-07-20T01:41:32;2.40;;;1.33;;
6973;SDS011;3527;52.376;8.990;2023-07-20T01:43:59;1.80;;;1.10;;
6973;SDS011;3527;52.376;8.990;2023-07-20T01:46:26;2.27;;;1.30;;
6973;SDS011;3527;52.376;8.990;2023-07-20T01:48:53;1.87;;;1.67;;
6973;SDS011;3527;52.376;8.990;2023-07-20T01:51:20;2.43;;;1.50;;
6973;SDS011;3527;52.376;8.990;2023-07-20T01:53:48;2.97;;;1.47;;
6973;SDS011;3527;52.376;8.990;2023-07-20T01:56:14;1.97;;;1.20;;
6973;SDS011;3527;52.376;8.990;2023-07-20T01:58:41;3.83;;;1.40;;
6973;SDS011;3527;52.376;8.990;2023-07-20T02:01:08;2.80;;;1.50;;
6973;SDS011;3527;52.376;8.990;2023-07-20T02:03:35;1.20;;;1.10;;
6973;SDS011;3527;52.376;8.990;2023-07-20T02:06:02;1.67;;;1.40;;
6973;SDS011;3527;52.376;8.990;2023-07-20T02:08:29;3.83;;;1.77;;
6973;SDS011;3527;52.376;8.990;2023-07-20T02:10:55;3.70;;;1.53;;
6973;SDS011;3527;52.376;8.990;2023-07-20T02:13:22;3.30;;;1.57;;
6973;SDS011;3527;52.376;8.990;2023-07-20T02:15:49;4.00;;;1.50;;
6973;SDS011;3527;52.376;8.990;2023-07-20T02:18:17;2.13;;;1.60;;
6973;SDS011;3527;52.376;8.990;2023-07-20T02:20:44;3.50;;;1.80;;
6973;SDS011;3527;52.376;8.990;2023-07-20T02:23:11;2.20;;;1.80;;
6973;SDS011;3527;52.376;8.990;2023-07-20T02:25:38;3.10;;;1.67;;
6973;SDS011;3527;52.376;8.990;2023-07-20T02:28:07;2.20;;;2.00;;
6973;SDS011;3527;52.376;8.990;2023-07-20T02:30:37;3.07;;;2.23;;
6973;SDS011;3527;52.376;8.990;2023-07-20T02:33:06;2.70;;;1.97;;
6973;SDS011;3527;52.376;8.990;2023-07-20T02:35:33;2.80;;;2.00;;
6973;SDS011;3527;52.376;8.990;2023-07-20T02:38:00;3.33;;;2.20;;
6973;SDS011;3527;52.376;8.990;2023-07-20T02:40:27;2.53;;;1.90;;
6973;SDS011;3527;52.376;8.990;2023-07-20T02:42:54;2.93;;;2.20;;
6973;SDS011;3527;52.376;8.990;2023-07-20T02:45:21;2.47;;;1.93;;
6973;SDS011;3527;52.376;8.990;2023-07-20T02:47:47;1.80;;;1.60;;
6973;SDS011;3527;52.376;8.990;2023-07-20T02:50:14;2.57;;;2.03;;
6973;SDS011;3527;52.376;8.990;2023-07-20T02:52:41;3.03;;;2.33;;
6973;SDS011;3527;52.376;8.990;2023-07-20T02:55:08;4.40;;;2.37;;
6973;SDS011;3527;52.376;8.990;2023-07-20T02:57:35;5.40;;;2.33;;
6973;SDS011;3527;52.376;8.990;2023-07-20T03:00:03;4.23;;;2.37;;
6973;SDS011;3527;52.376;8.990;2023-07-20T03:02:33;2.60;;;2.07;;
6973;SDS011;3527;52.376;8.990;2023-07-20T03:05:00;3.20;;;2.37;;
6973;SDS011;3527;52.376;8.990;2023-07-20T03:07:29;3.33;;;2.80;;
6973;SDS011;3527;52.376;8.990;2023-07-20T03:09:56;3.47;;;2.83;;
6973;SDS011;3527;52.376;8.990;2023-07-20T03:12:23;4.50;;;2.90;;
6973;SDS011;3527;52.376;8.990;2023-07-20T03:14:51;4.87;;;3.53;;
6973;SDS011;3527;52.376;8.990;2023-07-20T03:17:17;4.40;;;3.47;;
6973;SDS011;3527;52.376;8.990;2023-07-20T03:19:44;6.17;;;3.70;;
6973;SDS011;3527;52.376;8.990;2023-07-20T03:22:11;4.50;;;4.10;;
6973;SDS011;3527;52.376;8.990;2023-07-20T03:24:38;5.03;;;4.20;;
6973;SDS011;3527;52.376;8.990;2023-07-20T03:27:05;7.50;;;4.20;;
6973;SDS011;3527;52.376;8.990;2023-07-20T03:29:32;6.60;;;4.33;;
6973;SDS011;3527;52.376;8.990;2023-07-20T03:31:59;4.57;;;4.17;;
6973;SDS011;3527;52.376;8.990;2023-07-20T03:34:26;6.23;;;4.47;;
6973;SDS011;3527;52.376;8.990;2023-07-20T03:36:53;5.63;;;4.73;;
6973;SDS011;3527;52.376;8.990;2023-07-20T03:39:20;7.27;;;5.23;;
6973;SDS011;3527;52.376;8.990;2023-07-20T03:41:48;7.30;;;5.70;;
6973;SDS011;3527;52.376;8.990;2023-07-20T03:44:15;7.07;;;5.30;;
6973;SDS011;3527;52.376;8.990;2023-07-20T03:46:41;6.50;;;5.47;;
6973;SDS011;3527;52.376;8.990;2023-07-20T03:49:08;9.90;;;6.30;;
6973;SDS011;3527;52.376;8.990;2023-07-20T03:51:36;7.57;;;5.93;;
6973;SDS011;3527;52.376;8.990;2023-07-20T03:54:03;7.17;;;6.00;;
6973;SDS011;3527;52.376;8.990;2023-07-20T03:56:30;7.93;;;6.77;;
6973;SDS011;3527;52.376;8.990;2023-07-20T03:59:01;8.47;;;6.87;;
6973;SDS011;3527;52.376;8.990;2023-07-20T04:01:28;8.07;;;6.83;;
6973;SDS011;3527;52.376;8.990;2023-07-20T04:03:55;9.53;;;6.87;;
6973;SDS011;3527;52.376;8.990;2023-07-20T04:06:22;9.27;;;7.33;;
6973;SDS011;3527;52.376;8.990;2023-07-20T04:08:50;10.63;;;8.17;;
6973;SDS011;3527;52.376;8.990;2023-07-20T04:11:16;9.30;;;7.40;;
6973;SDS011;3527;52.376;8.990;2023-07-20T04:13:43;9.50;;;6.77;;
6973;SDS011;3527;52.376;8.990;2023-07-20T04:16:30;9.67;;;7.47;;
6973;SDS011;3527;52.376;8.990;2023-07-20T04:19:06;9.20;;;7.57;;
6973;SDS011;3527;52.376;8.990;2023-07-20T04:21:40;9.67;;;8.00;;
6973;SDS011;3527;52.376;8.990;2023-07-20T04:24:27;10.67;;;8.07;;
6973;SDS011;3527;52.376;8.990;2023-07-20T04:27:08;10.03;;;7.67;;
6973;SDS011;3527;52.376;8.990;2023-07-20T04:29:45;10.53;;;8.20;;
6973;SDS011;3527;52.376;8.990;2023-07-20T04:32:32;10.20;;;7.43;;
6973;SDS011;3527;52.376;8.990;2023-07-20T04:38:34;9.13;;;7.37;;
6973;SDS011;3527;52.376;8.990;2023-07-20T04:41:20;8.73;;;7.60;;
6973;SDS011;3527;52.376;8.990;2023-07-20T04:43:48;8.93;;;6.83;;
6973;SDS011;3527;52.376;8.990;2023-07-20T04:46:15;8.33;;;7.10;;
6973;SDS011;3527;52.376;8.990;2023-07-20T04:48:44;9.60;;;8.07;;
6973;SDS011;3527;52.376;8.990;2023-07-20T04:51:11;11.83;;;8.13;;
6973;SDS011;3527;52.376;8.990;2023-07-20T04:53:38;9.10;;;7.47;;
6973;SDS011;3527;52.376;8.990;2023-07-20T04:56:05;9.13;;;7.43;;
6973;SDS011;3527;52.376;8.990;2023-07-20T04:58:32;8.97;;;7.93;;
6973;SDS011;3527;52.376;8.990;2023-07-20T05:00:59;7.23;;;6.53;;
6973;SDS011;3527;52.376;8.990;2023-07-20T05:03:26;10.97;;;7.53;;
6973;SDS011;3527;52.376;8.990;2023-07-20T05:05:53;11.70;;;6.47;;
6973;SDS011;3527;52.376;8.990;2023-07-20T05:08:21;8.33;;;6.67;;
6973;SDS011;3527;52.376;8.990;2023-07-20T05:10:48;6.83;;;5.67;;
6973;SDS011;3527;52.376;8.990;2023-07-20T05:13:16;8.77;;;7.00;;
6973;SDS011;3527;52.376;8.990;2023-07-20T05:15:43;8.20;;;6.73;;
6973;SDS011;3527;52.376;8.990;2023-07-20T05:18:10;7.27;;;6.40;;
6973;SDS011;3527;52.376;8.990;2023-07-20T05:20:37;8.70;;;6.50;;
6973;SDS011;3527;52.376;8.990;2023-07-20T05:23:04;6.40;;;5.03;;
6973;SDS011;3527;52.376;8.990;2023-07-20T05:25:31;7.03;;;5.77;;
6973;SDS011;3527;52.376;8.990;2023-07-20T05:27:58;9.23;;;5.97;;
6973;SDS011;3527;52.376;8.990;2023-07-20T05:30:24;8.90;;;6.43;;
6973;SDS011;3527;52.376;8.990;2023-07-20T05:32:51;6.80;;;6.10;;
6973;SDS011;3527;52.376;8.990;2023-07-20T05:35:21;7.37;;;6.57;;
6973;SDS011;3527;52.376;8.990;2023-07-20T05:37:48;7.80;;;6.17;;
6973;SDS011;3527;52.376;8.990;2023-07-20T05:40:16;7.03;;;6.10;;
6973;SDS011;3527;52.376;8.990;2023-07-20T05:42:46;7.43;;;6.30;;
6973;SDS011;3527;52.376;8.990;2023-07-20T05:45:14;7.60;;;6.80;;
6973;SDS011;3527;52.376;8.990;2023-07-20T05:47:41;8.37;;;6.80;;
6973;SDS011;3527;52.376;8.990;2023-07-20T05:50:08;8.20;;;6.87;;
6973;SDS011;3527;52.376;8.990;2023-07-20T05:52:36;7.20;;;6.40;;
6973;SDS011;3527;52.376;8.990;2023-07-20T06:11:32;8.13;;;7.03;;
6973;SDS011;3527;52.376;8.990;2023-07-20T06:15:33;7.67;;;5.63;;
6973;SDS011;3527;52.376;8.990;2023-07-20T06:18:02;6.83;;;6.03;;
6973;SDS011;3527;52.376;8.990;2023-07-20T06:21:10;6.70;;;5.73;;
6973;SDS011;3527;52.376;8.990;2023-07-20T06:23:38;6.77;;;5.63;;
6973;SDS011;3527;52.376;8.990;2023-07-20T06:29:55;5.90;;;5.10;;
6973;SDS011;3527;52.376;8.990;2023-07-20T06:32:22;5.57;;;4.80;;
6973;SDS011;3527;52.376;8.990;2023-07-20T06:34:49;5.03;;;4.13;;
6973;SDS011;3527;52.376;8.990;2023-07-20T06:37:16;5.00;;;4.43;;
6973;SDS011;3527;52.376;8.990;2023-07-20T06:41:17;7.40;;;4.10;;
6973;SDS011;3527;52.376;8.990;2023-07-20T06:48:43;4.80;;;3.43;;
6973;SDS011;3527;52.376;8.990;2023-07-20T06:58:23;3.37;;;2.57;;
6973;SDS011;3527;52.376;8.990;2023-07-20T07:08:03;4.23;;;2.50;;
6973;SDS011;3527;52.376;8.990;2023-07-20T07:10:32;3.20;;;1.97;;
6973;SDS011;3527;52.376;8.990;2023-07-20T07:13:00;3.00;;;1.77;;
6973;SDS011;3527;52.376;8.990;2023-07-20T07:15:29;6.23;;;2.27;;
6973;SDS011;3527;52.376;8.990;2023-07-20T07:18:17;5.37;;;2.20;;
6973;SDS011;3527;52.376;8.990;2023-07-20T07:20:51;3.73;;;1.70;;
6973;SDS011;3527;52.376;8.990;2023-07-20T07:23:20;1.73;;;1.53;;
6973;SDS011;3527;52.376;8.990;2023-07-20T07:25:51;2.73;;;1.53;;
6973;SDS011;3527;52.376;8.990;2023-07-20T07:28:28;2.43;;;1.53;;
6973;SDS011;3527;52.376;8.990;2023-07-20T07:30:56;5.10;;;1.50;;
6973;SDS011;3527;52.376;8.990;2023-07-20T07:33:24;4.07;;;1.90;;
6973;SDS011;3527;52.376;8.990;2023-07-20T07:35:51;2.87;;;1.50;;
6973;SDS011;3527;52.376;8.990;2023-07-20T07:38:22;2.37;;;1.33;;
6973;SDS011;3527;52.376;8.990;2023-07-20T07:41:09;2.23;;;1.50;;
6973;SDS011;3527;52.376;8.990;2023-07-20T07:43:40;3.30;;;1.40;;
6973;SDS011;3527;52.376;8.990;2023-07-20T07:46:08;2.97;;;1.60;;
6973;SDS011;3527;52.376;8.990;2023-07-20T07:48:37;4.43;;;1.40;;
6973;SDS011;3527;52.376;8.990;2023-07-20T07:51:19;2.90;;;1.40;;
6973;SDS011;3527;52.376;8.990;2023-07-20T07:53:48;1.80;;;1.30;;
6973;SDS011;3527;52.376;8.990;2023-07-20T07:56:17;3.67;;;1.63;;
6973;SDS011;3527;52.376;8.990;2023-07-20T07:58:56;2.93;;;1.23;;
6973;SDS011;3527;52.376;8.990;2023-07-20T08:01:24;4.53;;;1.30;;
6973;SDS011;3527;52.376;8.990;2023-07-20T08:03:51;6.67;;;1.43;;
6973;SDS011;3527;52.376;8.990;2023-07-20T08:06:21;1.80;;;1.30;;
6973;SDS011;3527;52.376;8.990;2023-07-20T08:08:58;2.43;;;1.23;;
6973;SDS011;3527;52.376;8.990;2023-07-20T08:11:25;3.00;;;1.30;;
6973;SDS011;3527;52.376;8.990;2023-07-20T08:14:06;1.93;;;0.90;;
6973;SDS011;3527;52.376;8.990;2023-07-20T08:16:35;4.83;;;1.30;;
6973;SDS011;3527;52.376;8.990;2023-07-20T08:19:02;4.70;;;1.13;;
6973;SDS011;3527;52.376;8.990;2023-07-20T08:21:30;3.60;;;1.10;;
6973;SDS011;3527;52.376;8.990;2023-07-20T08:23:57;2.47;;;1.10;;
6973;SDS011;3527;52.376;8.990;2023-07-20T08:26:24;2.33;;;1.33;;
6973;SDS011;3527;52.376;8.990;2023-07-20T08:28:51;2.23;;;1.10;;
6973;SDS011;3527;52.376;8.990;2023-07-20T08:31:19;1.50;;;0.90;;
6973;SDS011;3527;52.376;8.990;2023-07-20T08:33:45;3.57;;;0.90;;
6973;SDS011;3527;52.376;8.990;2023-07-20T08:36:13;4.20;;;0.93;;
6973;SDS011;3527;52.376;8.990;2023-07-20T08:38:41;2.40;;;1.10;;
6973;SDS011;3527;52.376;8.990;2023-07-20T08:41:09;2.03;;;1.23;;
6973;SDS011;3527;52.376;8.990;2023-07-20T08:43:36;4.50;;;1.17;;
6973;SDS011;3527;52.376;8.990;2023-07-20T08:46:11;1.87;;;1.00;;
6973;SDS011;3527;52.376;8.990;2023-07-20T08:48:41;2.60;;;1.17;;
6973;SDS011;3527;52.376;8.990;2023-07-20T08:51:10;1.87;;;1.00;;
6973;SDS011;3527;52.376;8.990;2023-07-20T08:53:37;1.63;;;0.80;;
6973;SDS011;3527;52.376;8.990;2023-07-20T08:56:05;1.73;;;0.90;;
6973;SDS011;3527;52.376;8.990;2023-07-20T08:58:33;2.70;;;1.00;;
6973;SDS011;3527;52.376;8.990;2023-07-20T09:01:01;1.10;;;0.90;;
6973;SDS011;3527;52.376;8.990;2023-07-20T09:03:29;3.13;;;1.23;;
6973;SDS011;3527;52.376;8.990;2023-07-20T09:05:56;2.43;;;1.50;;
6973;SDS011;3527;52.376;8.990;2023-07-20T09:08:25;1.77;;;1.20;;
6973;SDS011;3527;52.376;8.990;2023-07-20T09:10:54;3.73;;;1.80;;
6973;SDS011;3527;52.376;8.990;2023-07-20T09:13:21;2.30;;;1.03;;
6973;SDS011;3527;52.376;8.990;2023-07-20T09:16:01;1.47;;;1.10;;
6973;SDS011;3527;52.376;8.990;2023-07-20T09:18:53;2.63;;;0.90;;
6973;SDS011;3527;52.376;8.990;2023-07-20T09:21:21;1.97;;;0.90;;
6973;SDS011;3527;52.376;8.990;2023-07-20T09:23:48;2.10;;;1.00;;
6973;SDS011;3527;52.376;8.990;2023-07-20T09:26:44;2.03;;;1.00;;
6973;SDS011;3527;52.376;8.990;2023-07-20T09:29:17;2.67;;;0.90;;
6973;SDS011;3527;52.376;8.990;2023-07-20T09:32:19;1.00;;;0.80;;
6973;SDS011;3527;52.376;8.990;2023-07-20T09:35:01;1.10;;;0.80;;
6973;SDS011;3527;52.376;8.990;2023-07-20T09:37:32;1.87;;;0.93;;
6973;SDS011;3527;52.376;8.990;2023-07-20T09:40:00;2.20;;;0.90;;
6973;SDS011;3527;52.376;8.990;2023-07-20T09:42:30;1.35;;;0.93;;
6973;SDS011;3527;52.376;8.990;2023-07-20T09:45:11;1.90;;;0.90;;
6973;SDS011;3527;52.376;8.990;2023-07-20T09:47:52;2.67;;;0.90;;
6973;SDS011;3527;52.376;8.990;2023-07-20T09:50:33;1.47;;;0.80;;
6973;SDS011;3527;52.376;8.990;2023-07-20T09:53:00;7.83;;;1.73;;
6973;SDS011;3527;52.376;8.990;2023-07-20T09:55:33;1.97;;;0.90;;
6973;SDS011;3527;52.376;8.990;2023-07-20T09:58:02;2.90;;;0.80;;
6973;SDS011;3527;52.376;8.990;2023-07-20T10:00:29;2.33;;;0.87;;
6973;SDS011;3527;52.376;8.990;2023-07-20T10:03:02;1.23;;;0.80;;
6973;SDS011;3527;52.376;8.990;2023-07-20T10:05:46;1.75;;;0.80;;
6973;SDS011;3527;52.376;8.990;2023-07-20T10:08:55;1.23;;;0.70;;
6973;SDS011;3527;52.376;8.990;2023-07-20T10:11:26;1.30;;;0.85;;
6973;SDS011;3527;52.376;8.990;2023-07-20T10:13:59;1.48;;;0.80;;
6973;SDS011;3527;52.376;8.990;2023-07-20T10:16:28;1.15;;;0.70;;
6973;SDS011;3527;52.376;8.990;2023-07-20T10:21:51;1.42;;;0.90;;
6973;SDS011;3527;52.376;8.990;2023-07-20T10:24:46;1.95;;;0.80;;
6973;SDS011;3527;52.376;8.990;2023-07-20T10:27:26;3.97;;;0.85;;
6973;SDS011;3527;52.376;8.990;2023-07-20T10:30:35;1.57;;;0.87;;
6973;SDS011;3527;52.376;8.990;2023-07-20T10:33:16;2.70;;;0.80;;
6973;SDS011;3527;52.376;8.990;2023-07-20T10:36:02;3.10;;;1.20;;
6973;SDS011;3527;52.376;8.990;2023-07-20T10:38:57;1.80;;;0.70;;
6973;SDS011;3527;52.376;8.990;2023-07-20T10:41:39;0.90;;;0.70;;
6973;SDS011;3527;52.376;8.990;2023-07-20T10:44:08;1.40;;;0.70;;
6973;SDS011;3527;52.376;8.990;2023-07-20T10:49:07;2.42;;;0.80;;
6973;SDS011;3527;52.376;8.990;2023-07-20T10:51:39;1.63;;;0.82;;
6973;SDS011;3527;52.376;8.990;2023-07-20T10:56:44;2.80;;;1.05;;
6973;SDS011;3527;52.376;8.990;2023-07-20T10:59:18;1.77;;;0.80;;
6973;SDS011;3527;52.376;8.990;2023-07-20T11:01:55;1.98;;;0.70;;
6973;SDS011;3527;52.376;8.990;2023-07-20T11:04:42;0.75;;;0.60;;
6973;SDS011;3527;52.376;8.990;2023-07-20T11:07:14;1.45;;;0.90;;
6973;SDS011;3527;52.376;8.990;2023-07-20T11:09:43;2.05;;;0.90;;
6973;SDS011;3527;52.376;8.990;2023-07-20T11:12:15;2.05;;;0.82;;
6973;SDS011;3527;52.376;8.990;2023-07-20T11:14:54;2.10;;;0.85;;
6973;SDS011;3527;52.376;8.990;2023-07-20T11:17:29;1.25;;;0.73;;
6973;SDS011;3527;52.376;8.990;2023-07-20T11:20:00;1.15;;;0.70;;
6973;SDS011;3527;52.376;8.990;2023-07-20T11:22:32;2.97;;;0.70;;
6973;SDS011;3527;52.376;8.990;2023-07-20T11:25:01;2.28;;;0.80;;
6973;SDS011;3527;52.376;8.990;2023-07-20T11:27:28;3.47;;;1.00;;
6973;SDS011;3527;52.376;8.990;2023-07-20T11:29:55;2.47;;;0.80;;
6973;SDS011;3527;52.376;8.990;2023-07-20T11:32:23;3.40;;;0.90;;
6973;SDS011;3527;52.376;8.990;2023-07-20T11:34:50;1.30;;;0.80;;
6973;SDS011;3527;52.376;8.990;2023-07-20T11:37:18;1.05;;;0.70;;
6973;SDS011;3527;52.376;8.990;2023-07-20T11:39:46;5.07;;;1.20;;
6973;SDS011;3527;52.376;8.990;2023-07-20T11:42:13;1.77;;;0.90;;
6973;SDS011;3527;52.376;8.990;2023-07-20T11:45:02;2.70;;;0.90;;
6973;SDS011;3527;52.376;8.990;2023-07-20T11:47:32;4.97;;;0.90;;
6973;SDS011;3527;52.376;8.990;2023-07-20T11:50:03;2.97;;;1.00;;
6973;SDS011;3527;52.376;8.990;2023-07-20T11:52:30;1.97;;;0.77;;
6973;SDS011;3527;52.376;8.990;2023-07-20T11:54:58;1.67;;;0.97;;
6973;SDS011;3527;52.376;8.990;2023-07-20T11:57:25;3.27;;;0.80;;
6973;SDS011;3527;52.376;8.990;2023-07-20T12:00:00;3.77;;;0.90;;
6973;SDS011;3527;52.376;8.990;2023-07-20T12:02:32;1.30;;;0.80;;
6973;SDS011;3527;52.376;8.990;2023-07-20T12:04:59;1.70;;;0.85;;
6973;SDS011;3527;52.376;8.990;2023-07-20T12:07:27;1.67;;;0.70;;
6973;SDS011;3527;52.376;8.990;2023-07-20T12:10:07;1.25;;;0.82;;
6973;SDS011;3527;52.376;8.990;2023-07-20T12:12:40;1.25;;;0.75;;
6973;SDS011;3527;52.376;8.990;2023-07-20T12:17:44;3.15;;;0.70;;
6973;SDS011;3527;52.376;8.990;2023-07-20T12:20:13;1.60;;;0.80;;
6973;SDS011;3527;52.376;8.990;2023-07-20T12:22:40;3.55;;;1.00;;
6973;SDS011;3527;52.376;8.990;2023-07-20T12:25:10;1.08;;;0.80;;
6973;SDS011;3527;52.376;8.990;2023-07-20T12:27:36;2.45;;;0.82;;
6973;SDS011;3527;52.376;8.990;2023-07-20T12:30:08;1.20;;;0.80;;
6973;SDS011;3527;52.376;8.990;2023-07-20T12:32:35;2.87;;;0.90;;
6973;SDS011;3527;52.376;8.990;2023-07-20T12:35:01;1.80;;;1.07;;
6973;SDS011;3527;52.376;8.990;2023-07-20T12:37:28;1.33;;;0.85;;
6973;SDS011;3527;52.376;8.990;2023-07-20T12:39:55;2.30;;;1.07;;
6973;SDS011;3527;52.376;8.990;2023-07-20T12:42:22;1.53;;;1.00;;
6973;SDS011;3527;52.376;8.990;2023-07-20T12:44:49;1.40;;;0.70;;
6973;SDS011;3527;52.376;8.990;2023-07-20T12:47:17;1.70;;;0.90;;
6973;SDS011;3527;52.376;8.990;2023-07-20T12:49:45;1.88;;;0.88;;
6973;SDS011;3527;52.376;8.990;2023-07-20T12:52:13;1.00;;;0.90;;
6973;SDS011;3527;52.376;8.990;2023-07-20T12:54:40;1.20;;;0.80;;
6973;SDS011;3527;52.376;8.990;2023-07-20T12:57:09;1.20;;;0.73;;
6973;SDS011;3527;52.376;8.990;2023-07-20T12:59:38;2.28;;;0.77;;
6973;SDS011;3527;52.376;8.990;2023-07-20T13:02:05;1.33;;;0.70;;
6973;SDS011;3527;52.376;8.990;2023-07-20T13:04:32;2.30;;;0.90;;
6973;SDS011;3527;52.376;8.990;2023-07-20T13:06:59;1.02;;;0.70;;
6973;SDS011;3527;52.376;8.990;2023-07-20T13:09:46;1.38;;;0.90;;
6973;SDS011;3527;52.376;8.990;2023-07-20T13:12:13;1.45;;;0.80;;
6973;SDS011;3527;52.376;8.990;2023-07-20T13:14:40;2.33;;;0.80;;
6973;SDS011;3527;52.376;8.990;2023-07-20T13:17:06;1.90;;;0.90;;
6973;SDS011;3527;52.376;8.990;2023-07-20T13:19:34;1.73;;;0.75;;
6973;SDS011;3527;52.376;8.990;2023-07-20T13:22:01;2.60;;;0.88;;
6973;SDS011;3527;52.376;8.990;2023-07-20T13:24:28;1.42;;;0.70;;
6973;SDS011;3527;52.376;8.990;2023-07-20T13:26:55;1.10;;;0.60;;
6973;SDS011;3527;52.376;8.990;2023-07-20T13:29:23;1.45;;;0.85;;
6973;SDS011;3527;52.376;8.990;2023-07-20T13:31:50;1.48;;;0.85;;
6973;SDS011;3527;52.376;8.990;2023-07-20T13:34:17;1.55;;;0.90;;
6973;SDS011;3527;52.376;8.990;2023-07-20T13:36:45;2.00;;;0.70;;
6973;SDS011;3527;52.376;8.990;2023-07-20T13:39:15;0.80;;;0.70;;
6973;SDS011;3527;52.376;8.990;2023-07-20T13:41:42;1.35;;;0.70;;
6973;SDS011;3527;52.376;8.990;2023-07-20T13:44:09;0.70;;;0.60;;
6973;SDS011;3527;52.376;8.990;2023-07-20T13:46:37;1.52;;;0.70;;
6973;SDS011;3527;52.376;8.990;2023-07-20T13:49:07;0.90;;;0.65;;
6973;SDS011;3527;52.376;8.990;2023-07-20T13:51:36;1.13;;;0.80;;
6973;SDS011;3527;52.376;8.990;2023-07-20T13:54:03;2.45;;;0.98;;
6973;SDS011;3527;52.376;8.990;2023-07-20T13:56:33;2.10;;;1.10;;
6973;SDS011;3527;52.376;8.990;2023-07-20T13:59:00;1.33;;;0.80;;
6973;SDS011;3527;52.376;8.990;2023-07-20T14:01:27;2.25;;;1.00;;
6973;SDS011;3527;52.376;8.990;2023-07-20T14:03:57;1.00;;;0.77;;
6973;SDS011;3527;52.376;8.990;2023-07-20T14:06:31;1.83;;;0.80;;
6973;SDS011;3527;52.376;8.990;2023-07-20T14:08:59;1.95;;;0.90;;
6973;SDS011;3527;52.376;8.990;2023-07-20T14:11:27;1.80;;;1.10;;
6973;SDS011;3527;52.376;8.990;2023-07-20T14:13:56;1.35;;;0.90;;
6973;SDS011;3527;52.376;8.990;2023-07-20T14:16:24;1.25;;;0.82;;
6973;SDS011;3527;52.376;8.990;2023-07-20T14:18:52;2.28;;;0.90;;
6973;SDS011;3527;52.376;8.990;2023-07-20T14:21:19;1.83;;;0.90;;
6973;SDS011;3527;52.376;8.990;2023-07-20T14:23:48;2.40;;;0.90;;
6973;SDS011;3527;52.376;8.990;2023-07-20T14:26:19;1.70;;;0.80;;
6973;SDS011;3527;52.376;8.990;2023-07-20T14:28:48;2.50;;;1.00;;
6973;SDS011;3527;52.376;8.990;2023-07-20T14:31:15;1.93;;;1.07;;
6973;SDS011;3527;52.376;8.990;2023-07-20T14:33:44;1.60;;;0.97;;
6973;SDS011;3527;52.376;8.990;2023-07-20T14:36:12;1.27;;;0.80;;
6973;SDS011;3527;52.376;8.990;2023-07-20T14:38:38;1.60;;;0.90;;
6973;SDS011;3527;52.376;8.990;2023-07-20T14:41:07;1.63;;;1.00;;
6973;SDS011;3527;52.376;8.990;2023-07-20T14:43:33;2.00;;;1.17;;
6973;SDS011;3527;52.376;8.990;2023-07-20T14:46:00;3.00;;;1.10;;
6973;SDS011;3527;52.376;8.990;2023-07-20T14:48:27;1.50;;;0.80;;
6973;SDS011;3527;52.376;8.990;2023-07-20T14:50:54;1.67;;;0.80;;
6973;SDS011;3527;52.376;8.990;2023-07-20T14:53:30;2.23;;;1.10;;
6973;SDS011;3527;52.376;8.990;2023-07-20T14:56:00;7.33;;;1.30;;
6973;SDS011;3527;52.376;8.990;2023-07-20T14:58:28;3.23;;;1.17;;
6973;SDS011;3527;52.376;8.990;2023-07-20T15:01:00;1.33;;;0.90;;
6973;SDS011;3527;52.376;8.990;2023-07-20T15:03:27;1.97;;;1.40;;
6973;SDS011;3527;52.376;8.990;2023-07-20T15:05:54;3.53;;;1.30;;
6973;SDS011;3527;52.376;8.990;2023-07-20T15:08:22;2.13;;;1.20;;
6973;SDS011;3527;52.376;8.990;2023-07-20T15:10:49;2.27;;;1.27;;
6973;SDS011;3527;52.376;8.990;2023-07-20T15:13:16;2.30;;;1.20;;
6973;SDS011;3527;52.376;8.990;2023-07-20T15:15:43;2.43;;;1.20;;
6973;SDS011;3527;52.376;8.990;2023-07-20T15:18:09;2.63;;;1.30;;
6973;SDS011;3527;52.376;8.990;2023-07-20T15:20:36;2.27;;;1.10;;
6973;SDS011;3527;52.376;8.990;2023-07-20T15:23:03;1.93;;;1.27;;
6973;SDS011;3527;52.376;8.990;2023-07-20T15:25:30;3.83;;;1.30;;
6973;SDS011;3527;52.376;8.990;2023-07-20T15:27:57;4.17;;;1.60;;
6973;SDS011;3527;52.376;8.990;2023-07-20T15:30:24;3.70;;;1.30;;
6973;SDS011;3527;52.376;8.990;2023-07-20T15:32:53;4.47;;;1.23;;
6973;SDS011;3527;52.376;8.990;2023-07-20T15:35:25;3.20;;;1.50;;
6973;SDS011;3527;52.376;8.990;2023-07-20T15:37:52;2.53;;;1.10;;
6973;SDS011;3527;52.376;8.990;2023-07-20T15:40:19;3.07;;;1.40;;
6973;SDS011;3527;52.376;8.990;2023-07-20T15:42:46;2.70;;;1.40;;
6973;SDS011;3527;52.376;8.990;2023-07-20T15:45:17;2.70;;;1.33;;
6973;SDS011;3527;52.376;8.990;2023-07-20T15:47:43;3.23;;;1.30;;
6973;SDS011;3527;52.376;8.990;2023-07-20T15:50:10;2.70;;;1.53;;
6973;SDS011;3527;52.376;8.990;2023-07-20T15:52:39;2.33;;;1.23;;
6973;SDS011;3527;52.376;8.990;2023-07-20T15:55:08;2.47;;;1.57;;
6973;SDS011;3527;52.376;8.990;2023-07-20T15:57:35;4.33;;;1.47;;
6973;SDS011;3527;52.376;8.990;2023-07-20T16:00:02;2.13;;;1.27;;
6973;SDS011;3527;52.376;8.990;2023-07-20T16:02:32;2.47;;;1.40;;
6973;SDS011;3527;52.376;8.990;2023-07-20T16:04:59;2.77;;;1.30;;
6973;SDS011;3527;52.376;8.990;2023-07-20T16:07:40;1.90;;;1.40;;
6973;SDS011;3527;52.376;8.990;2023-07-20T16:10:11;2.20;;;1.10;;
6973;SDS011;3527;52.376;8.990;2023-07-20T16:12:38;4.00;;;1.35;;
6973;SDS011;3527;52.376;8.990;2023-07-20T16:15:08;1.88;;;1.48;;
6973;SDS011;3527;52.376;8.990;2023-07-20T16:17:35;6.32;;;1.55;;
6973;SDS011;3527;52.376;8.990;2023-07-20T16:20:02;3.40;;;1.60;;
6973;SDS011;3527;52.376;8.990;2023-07-20T16:22:30;3.80;;;1.67;;
6973;SDS011;3527;52.376;8.990;2023-07-20T16:24:57;2.93;;;1.73;;
6973;SDS011;3527;52.376;8.990;2023-07-20T16:27:24;4.00;;;1.50;;
6973;SDS011;3527;52.376;8.990;2023-07-20T16:29:51;2.38;;;1.70;;
6973;SDS011;3527;52.376;8.990;2023-07-20T16:32:18;3.28;;;1.65;;
6973;SDS011;3527;52.376;8.990;2023-07-20T16:34:45;3.25;;;1.67;;
6973;SDS011;3527;52.376;8.990;2023-07-20T16:37:14;2.58;;;1.63;;